createdAt,value
2018-06-27T00:01:08.462Z,15.11
2018-06-27T00:03:37.454Z,15.09
2018-06-27T00:06:06.508Z,15.06
2018-06-27T00:08:35.491Z,15.00
2018-06-27T00:11:04.589Z,14.96
2018-06-27T00:13:33.608Z,14.94
2018-06-27T00:16:02.600Z,14.91
2018-06-27T00:18:31.690Z,14.84
2018-06-27T00:21:00.666Z,14.81
2018-06-27T00:23:29.673Z,14.73
2018-06-27T00:25:58.687Z,14.69
2018-06-27T00:28:27.662Z,14.63
2018-06-27T00:30:56.608Z,14.49
2018-06-27T00:33:25.643Z,14.48
2018-06-27T00:35:54.600Z,14.36
2018-06-27T00:38:23.985Z,14.29
2018-06-27T00:40:52.939Z,14.24
2018-06-27T00:43:21.896Z,14.23
2018-06-27T00:45:50.859Z,14.16
2018-06-27T00:48:19.820Z,14.09
2018-06-27T00:50:48.793Z,14.03
2018-06-27T00:53:17.829Z,13.95
2018-06-27T00:55:46.775Z,13.89
2018-06-27T00:58:15.734Z,13.85
2018-06-27T01:00:44.724Z,13.85
2018-06-27T01:03:13.751Z,13.82
2018-06-27T01:05:42.740Z,13.79
2018-06-27T01:08:11.812Z,13.77
2018-06-27T01:10:40.862Z,13.73
2018-06-27T01:13:09.803Z,13.68
2018-06-27T01:15:38.783Z,13.67
2018-06-27T01:18:07.755Z,13.68
2018-06-27T01:20:36.788Z,13.71
2018-06-27T01:23:06.190Z,13.75
2018-06-27T01:25:35.193Z,13.76
2018-06-27T01:28:04.155Z,13.78
2018-06-27T01:30:33.119Z,13.81
2018-06-27T01:33:02.081Z,13.89
2018-06-27T01:35:31.083Z,13.94
2018-06-27T01:38:00.092Z,14.08
2018-06-27T01:40:29.051Z,14.16
2018-06-27T01:42:58.006Z,14.15
2018-06-27T01:45:26.956Z,14.11
2018-06-27T01:47:55.917Z,14.14
2018-06-27T01:50:24.889Z,14.12
2018-06-27T01:52:53.873Z,14.07
2018-06-27T01:55:22.855Z,14.03
2018-06-27T01:57:51.920Z,14.00
2018-06-27T02:00:21.326Z,14.01
2018-06-27T02:02:50.403Z,14.05
2018-06-27T02:05:19.382Z,14.05
2018-06-27T02:07:48.404Z,14.06
2018-06-27T02:10:17.569Z,14.08
2018-06-27T02:12:46.655Z,14.09
2018-06-27T02:15:15.620Z,14.05
2018-06-27T02:17:44.604Z,13.88
2018-06-27T02:20:13.592Z,13.81
2018-06-27T02:22:42.584Z,13.71
2018-06-27T02:25:11.565Z,13.68
2018-06-27T02:27:40.566Z,13.69
2018-06-27T02:30:09.519Z,13.74
2018-06-27T02:32:38.503Z,13.73
2018-06-27T02:35:07.813Z,13.72
2018-06-27T02:37:36.799Z,13.63
2018-06-27T02:40:05.763Z,13.58
2018-06-27T02:42:34.809Z,13.50
2018-06-27T02:45:03.813Z,13.46
2018-06-27T02:47:33.324Z,13.42
2018-06-27T02:50:02.341Z,13.38
2018-06-27T02:52:31.458Z,13.30
2018-06-27T02:55:00.435Z,13.25
2018-06-27T02:57:29.424Z,13.22
2018-06-27T02:59:58.419Z,13.18
2018-06-27T03:02:27.705Z,13.18
2018-06-27T03:04:56.662Z,13.17
2018-06-27T03:07:25.650Z,13.19
2018-06-27T03:09:54.663Z,13.14
2018-06-27T03:12:23.618Z,13.10
2018-06-27T03:14:52.774Z,13.08
2018-06-27T03:17:21.723Z,13.09
2018-06-27T03:19:50.689Z,13.03
2018-06-27T03:22:19.779Z,13.06
2018-06-27T03:24:48.787Z,13.03
2018-06-27T03:27:17.746Z,12.99
2018-06-27T03:29:46.737Z,12.92
2018-06-27T03:32:15.694Z,12.95
2018-06-27T03:34:44.775Z,12.94
2018-06-27T03:37:13.853Z,12.95
2018-06-27T03:39:42.820Z,12.99
2018-06-27T03:42:11.804Z,13.02
2018-06-27T03:44:41.902Z,13.08
2018-06-27T03:47:10.868Z,13.12
2018-06-27T03:49:39.843Z,13.17
2018-06-27T03:52:08.835Z,13.24
2018-06-27T03:54:37.822Z,13.35
2018-06-27T03:57:06.799Z,13.43
2018-06-27T03:59:35.857Z,13.62
2018-06-27T04:02:04.842Z,13.78
2018-06-27T04:04:34.288Z,13.87
2018-06-27T04:07:03.278Z,13.93
2018-06-27T04:09:32.309Z,14.00
2018-06-27T04:12:01.284Z,14.07
2018-06-27T04:14:30.316Z,14.08
2018-06-27T04:16:59.280Z,14.17
2018-06-27T04:19:28.234Z,14.26
2018-06-27T04:21:57.311Z,14.38
2018-06-27T04:24:26.277Z,14.49
2018-06-27T04:26:55.223Z,14.66
2018-06-27T04:29:24.183Z,14.88
2018-06-27T04:31:53.215Z,14.92
2018-06-27T04:34:22.900Z,14.96
2018-06-27T04:36:51.978Z,14.99
2018-06-27T04:39:21.052Z,15.27
2018-06-27T04:41:50.134Z,15.63
2018-06-27T04:44:19.130Z,15.52
2018-06-27T04:46:48.125Z,15.60
2018-06-27T04:49:17.121Z,15.69
2018-06-27T04:51:46.078Z,15.62
2018-06-27T04:54:15.127Z,15.76
2018-06-27T04:56:44.076Z,15.90
2018-06-27T04:59:13.061Z,15.82
2018-06-27T05:01:42.094Z,15.79
2018-06-27T05:04:11.002Z,15.78
2018-06-27T05:06:39.947Z,15.83
2018-06-27T05:09:09.883Z,15.71
2018-06-27T05:11:39.227Z,15.62
2018-06-27T05:14:08.183Z,15.66
2018-06-27T05:16:37.253Z,15.65
2018-06-27T05:19:06.226Z,15.69
2018-06-27T05:21:35.230Z,15.67
2018-06-27T05:24:04.337Z,15.67
2018-06-27T05:26:36.207Z,15.76
2018-06-27T05:29:05.270Z,15.87
2018-06-27T05:31:34.410Z,15.94
2018-06-27T05:34:03.574Z,16.02
2018-06-27T05:36:32.568Z,16.07
2018-06-27T05:39:01.551Z,16.14
2018-06-27T05:41:30.661Z,16.34
2018-06-27T05:43:59.668Z,16.49
2018-06-27T05:46:28.623Z,16.62
2018-06-27T05:48:57.603Z,16.68
2018-06-27T05:51:26.630Z,16.76
2018-06-27T05:53:55.611Z,16.78
2018-06-27T05:56:24.613Z,16.91
2018-06-27T05:58:53.600Z,17.02
2018-06-27T06:01:22.627Z,17.16
2018-06-27T06:03:51.599Z,17.32
2018-06-27T06:06:20.644Z,17.67
2018-06-27T06:08:49.607Z,18.01
2018-06-27T06:11:18.596Z,18.30
2018-06-27T06:13:47.587Z,19.07
2018-06-27T06:16:16.566Z,20.21
2018-06-27T06:18:45.510Z,20.67
2018-06-27T06:21:14.624Z,21.09
2018-06-27T06:23:43.588Z,22.27
2018-06-27T06:26:12.568Z,22.96
2018-06-27T06:28:41.577Z,24.39
2018-06-27T06:31:10.580Z,25.23
2018-06-27T06:33:39.569Z,25.29
2018-06-27T06:36:08.539Z,25.27
2018-06-27T06:38:37.570Z,25.62
2018-06-27T06:41:06.833Z,25.49
2018-06-27T06:43:35.808Z,26.35
2018-06-27T06:46:05.086Z,26.61
2018-06-27T06:48:34.037Z,27.07
2018-06-27T06:51:03.185Z,26.90
2018-06-27T06:53:32.271Z,26.94
2018-06-27T06:56:01.289Z,26.92
2018-06-27T06:58:30.256Z,27.51
2018-06-27T07:00:59.359Z,27.32
2018-06-27T07:03:28.335Z,27.36
2018-06-27T07:05:57.323Z,27.01
2018-06-27T07:08:26.302Z,26.72
2018-06-27T07:10:55.314Z,27.06
2018-06-27T07:13:24.309Z,26.86
2018-06-27T07:15:53.495Z,27.09
2018-06-27T07:18:22.574Z,27.62
2018-06-27T07:20:51.594Z,27.66
2018-06-27T07:23:20.586Z,27.30
2018-06-27T07:25:49.976Z,27.43
2018-06-27T07:28:18.956Z,27.26
2018-06-27T07:30:48.354Z,26.92
2018-06-27T07:33:17.363Z,27.51
2018-06-27T07:35:46.323Z,27.76
2018-06-27T07:38:15.346Z,27.53
2018-06-27T07:40:44.408Z,25.74
2018-06-27T07:43:13.468Z,25.64
2018-06-27T07:45:42.519Z,24.66
2018-06-27T07:48:11.546Z,25.59
2018-06-27T07:50:40.586Z,26.15
2018-06-27T07:53:10.460Z,25.87
2018-06-27T07:55:39.474Z,25.82
2018-06-27T07:58:08.453Z,25.76
2018-06-27T08:00:37.408Z,25.93
2018-06-27T08:03:06.431Z,26.32
2018-06-27T08:05:35.421Z,26.97
2018-06-27T08:08:04.412Z,27.88
2018-06-27T08:10:33.422Z,28.49
2018-06-27T08:13:02.412Z,28.03
2018-06-27T08:15:31.413Z,28.15
2018-06-27T08:18:00.633Z,28.12
2018-06-27T08:20:29.414Z,28.71
2018-06-27T08:22:58.413Z,28.79
2018-06-27T08:25:27.398Z,27.95
2018-06-27T08:27:56.380Z,28.54
2018-06-27T08:30:25.384Z,29.16
2018-06-27T08:32:54.356Z,28.55
2018-06-27T08:35:23.389Z,28.47
2018-06-27T08:37:52.372Z,28.20
2018-06-27T08:40:21.366Z,28.84
2018-06-27T08:42:50.381Z,29.17
2018-06-27T08:45:19.412Z,29.33
2018-06-27T08:47:48.456Z,28.65
2018-06-27T08:50:19.231Z,28.77
2018-06-27T08:52:49.687Z,29.14
2018-06-27T08:55:18.734Z,28.74
2018-06-27T08:57:47.683Z,27.95
2018-06-27T09:00:16.684Z,27.43
2018-06-27T09:02:45.668Z,26.36
2018-06-27T09:05:14.661Z,26.54
2018-06-27T09:07:43.701Z,25.72
2018-06-27T09:10:12.687Z,24.58
2018-06-27T09:12:41.694Z,24.07
2018-06-27T09:15:10.628Z,23.74
2018-06-27T09:17:39.612Z,24.68
2018-06-27T09:20:08.566Z,25.98
2018-06-27T09:22:37.567Z,26.45
2018-06-27T09:25:06.568Z,27.60
2018-06-27T09:27:35.588Z,28.08
2018-06-27T09:30:04.989Z,26.87
2018-06-27T09:32:34.003Z,27.01
2018-06-27T09:35:03.076Z,26.56
2018-06-27T09:37:32.081Z,26.47
2018-06-27T09:40:01.090Z,26.27
2018-06-27T09:42:30.262Z,25.58
2018-06-27T09:44:59.270Z,26.39
2018-06-27T09:47:28.242Z,27.40
2018-06-27T09:49:57.225Z,27.35
2018-06-27T09:52:26.225Z,27.57
2018-06-27T09:54:58.075Z,26.28
2018-06-27T09:57:27.064Z,25.62
2018-06-27T09:59:56.091Z,25.21
2018-06-27T10:02:25.150Z,25.41
2018-06-27T10:04:54.164Z,25.53
2018-06-27T10:07:23.179Z,25.65
2018-06-27T10:09:52.191Z,26.84
2018-06-27T10:12:21.158Z,27.73
2018-06-27T10:14:50.387Z,28.28
2018-06-27T10:17:19.483Z,28.43
2018-06-27T10:19:48.443Z,27.29
2018-06-27T10:22:17.458Z,26.23
2018-06-27T10:24:46.431Z,25.39
2018-06-27T10:27:15.391Z,25.04
2018-06-27T10:29:44.391Z,25.34
2018-06-27T10:32:13.372Z,26.00
2018-06-27T10:34:42.349Z,27.29
2018-06-27T10:37:11.376Z,27.22
2018-06-27T10:39:40.437Z,26.99
2018-06-27T10:42:09.403Z,25.55
2018-06-27T10:44:38.497Z,26.43
2018-06-27T10:47:07.554Z,26.67
2018-06-27T10:49:36.566Z,27.32
2018-06-27T10:52:05.800Z,28.18
2018-06-27T10:54:38.995Z,27.93
2018-06-27T10:57:08.110Z,27.27
2018-06-27T10:59:37.148Z,26.50
2018-06-27T11:02:06.121Z,26.98
2018-06-27T11:04:35.275Z,26.92
2018-06-27T11:07:04.500Z,26.90
2018-06-27T11:09:33.481Z,26.45
2018-06-27T11:12:02.556Z,26.10
2018-06-27T11:14:31.583Z,25.80
2018-06-27T11:17:00.682Z,25.44
2018-06-27T11:19:29.740Z,25.50
2018-06-27T11:21:59.027Z,26.03
2018-06-27T11:24:28.217Z,26.45
2018-06-27T11:26:57.220Z,26.17
2018-06-27T11:29:26.181Z,25.49
2018-06-27T11:31:55.146Z,25.27
2018-06-27T11:34:24.109Z,24.81
2018-06-27T11:36:53.145Z,24.90
2018-06-27T11:39:22.137Z,25.03
2018-06-27T11:41:51.140Z,25.23
2018-06-27T11:44:20.118Z,25.97
2018-06-27T11:46:49.074Z,25.63
2018-06-27T11:49:18.082Z,25.23
2018-06-27T11:51:47.065Z,25.06
2018-06-27T11:54:16.047Z,24.77
2018-06-27T11:56:44.995Z,26.12
2018-06-27T11:59:14.025Z,27.32
2018-06-27T12:01:43.004Z,27.79
2018-06-27T12:04:12.031Z,27.20
2018-06-27T12:06:41.071Z,26.68
2018-06-27T12:09:10.994Z,26.18
2018-06-27T12:11:40.181Z,25.77
2018-06-27T12:14:09.182Z,25.07
2018-06-27T12:16:38.129Z,24.63
2018-06-27T12:19:07.140Z,24.97
2018-06-27T12:21:36.141Z,25.20
2018-06-27T12:24:05.176Z,25.76
2018-06-27T12:26:34.181Z,26.08
2018-06-27T12:29:03.199Z,26.49
2018-06-27T12:31:32.217Z,26.76
2018-06-27T12:34:01.265Z,27.36
2018-06-27T12:36:30.271Z,27.92
2018-06-27T12:38:59.239Z,28.47
2018-06-27T12:41:28.192Z,29.05
2018-06-27T12:43:57.162Z,29.38
2018-06-27T12:46:26.135Z,29.49
2018-06-27T12:48:55.245Z,29.74
2018-06-27T12:51:24.221Z,29.96
2018-06-27T12:53:53.210Z,30.04
2018-06-27T12:56:22.251Z,29.59
2018-06-27T12:58:51.205Z,29.26
2018-06-27T13:01:20.197Z,30.27
2018-06-27T13:03:49.246Z,30.17
2018-06-27T13:06:18.247Z,30.51
2018-06-27T13:08:47.675Z,30.38
2018-06-27T13:11:16.750Z,30.39
2018-06-27T13:13:50.277Z,29.44
2018-06-27T13:16:19.242Z,28.96
2018-06-27T13:18:48.211Z,28.82
2018-06-27T13:21:17.201Z,29.77
2018-06-27T13:23:46.222Z,29.81
2018-06-27T13:26:15.184Z,30.22
2018-06-27T13:28:44.168Z,30.58
2018-06-27T13:31:13.477Z,30.46
2018-06-27T13:33:42.693Z,30.23
2018-06-27T13:36:11.647Z,30.42
2018-06-27T13:38:41.151Z,30.68
2018-06-27T13:41:10.145Z,30.66
2018-06-27T13:43:39.227Z,30.77
2018-06-27T13:46:08.407Z,30.54
2018-06-27T13:48:37.372Z,29.86
2018-06-27T13:51:06.809Z,30.22
2018-06-27T13:53:35.833Z,29.66
2018-06-27T13:56:04.960Z,29.74
2018-06-27T13:58:33.990Z,28.65
2018-06-27T14:01:03.452Z,28.19
2018-06-27T14:03:32.468Z,27.86
2018-06-27T14:06:01.502Z,28.01
2018-06-27T14:08:31.031Z,28.79
2018-06-27T14:11:00.074Z,29.14
2018-06-27T14:13:29.054Z,29.26
2018-06-27T14:15:58.057Z,29.44
2018-06-27T14:18:27.051Z,29.53
2018-06-27T14:20:56.094Z,28.90
2018-06-27T14:23:25.118Z,28.55
2018-06-27T14:25:54.096Z,28.63
2018-06-27T14:28:23.076Z,28.40
2018-06-27T14:30:52.044Z,28.23
2018-06-27T14:33:21.023Z,28.31
2018-06-27T14:35:50.015Z,28.18
2018-06-27T14:38:19.015Z,27.57
2018-06-27T14:40:48.036Z,26.47
2018-06-27T14:43:17.017Z,26.29
2018-06-27T14:45:46.089Z,26.12
2018-06-27T14:48:15.108Z,25.74
2018-06-27T14:50:44.130Z,25.68
2018-06-27T14:53:13.099Z,25.64
2018-06-27T14:55:42.106Z,25.58
2018-06-27T14:58:11.110Z,25.64
2018-06-27T15:00:40.223Z,25.48
2018-06-27T15:03:09.321Z,25.41
2018-06-27T15:05:38.312Z,25.37
2018-06-27T15:08:07.662Z,25.35
2018-06-27T15:10:36.786Z,25.27
2018-06-27T15:13:05.835Z,25.11
2018-06-27T15:15:34.923Z,24.89
2018-06-27T15:18:03.974Z,24.84
2018-06-27T15:20:33.204Z,24.78
2018-06-27T15:23:02.163Z,24.60
2018-06-27T15:25:31.245Z,24.42
2018-06-27T15:28:00.244Z,24.62
2018-06-27T15:30:29.243Z,24.84
2018-06-27T15:32:58.347Z,24.97
2018-06-27T15:35:27.594Z,25.02
2018-06-27T15:37:56.773Z,25.33
2018-06-27T15:40:25.988Z,25.23
2018-06-27T15:42:55.259Z,25.18
2018-06-27T15:45:24.269Z,25.09
2018-06-27T15:47:53.308Z,25.00
2018-06-27T15:50:22.538Z,25.01
2018-06-27T15:52:51.552Z,25.17
2018-06-27T15:55:20.831Z,25.39
2018-06-27T15:57:49.918Z,25.40
2018-06-27T16:00:18.867Z,25.33
2018-06-27T16:02:47.873Z,25.21
2018-06-27T16:05:16.855Z,24.85
2018-06-27T16:07:45.871Z,24.61
2018-06-27T16:10:15.000Z,24.73
2018-06-27T16:12:44.020Z,24.69
2018-06-27T16:15:13.065Z,24.39
2018-06-27T16:17:42.045Z,24.56
2018-06-27T16:20:11.032Z,24.63
2018-06-27T16:22:40.023Z,24.51
2018-06-27T16:25:09.039Z,24.61
2018-06-27T16:27:38.002Z,24.69
2018-06-27T16:30:07.544Z,24.65
2018-06-27T16:32:36.644Z,24.81
2018-06-27T16:35:05.668Z,24.65
2018-06-27T16:37:34.730Z,24.67
2018-06-27T16:40:03.737Z,24.61
2018-06-27T16:42:32.759Z,24.54
2018-06-27T16:45:01.765Z,24.48
2018-06-27T16:47:31.110Z,24.15
2018-06-27T16:50:00.092Z,24.00
2018-06-27T16:52:29.160Z,23.96
2018-06-27T16:55:01.784Z,23.88
2018-06-27T16:57:30.851Z,23.84
2018-06-27T17:00:00.897Z,23.92
2018-06-27T17:02:29.929Z,23.76
2018-06-27T17:04:58.943Z,23.81
2018-06-27T17:07:27.917Z,23.81
2018-06-27T17:09:56.902Z,23.78
2018-06-27T17:12:25.890Z,23.80
2018-06-27T17:14:55.194Z,23.76
2018-06-27T17:17:24.326Z,23.78
2018-06-27T17:19:53.403Z,23.76
2018-06-27T17:22:22.379Z,23.77
2018-06-27T17:24:51.611Z,23.74
2018-06-27T17:27:20.678Z,23.64
2018-06-27T17:29:49.670Z,23.60
2018-06-27T17:32:18.692Z,23.46
2018-06-27T17:34:47.704Z,23.50
2018-06-27T17:37:16.700Z,23.50
2018-06-27T17:39:45.711Z,23.52
2018-06-27T17:42:14.925Z,23.54
2018-06-27T17:44:44.620Z,23.50
2018-06-27T17:47:13.638Z,23.38
2018-06-27T17:49:42.699Z,23.33
2018-06-27T17:52:11.709Z,23.13
2018-06-27T17:54:40.773Z,23.03
2018-06-27T17:57:09.762Z,22.92
2018-06-27T17:59:38.775Z,22.89
2018-06-27T18:02:07.852Z,22.81
2018-06-27T18:04:36.810Z,22.75
2018-06-27T18:07:05.987Z,22.61
2018-06-27T18:09:35.142Z,22.50
2018-06-27T18:12:04.284Z,22.45
2018-06-27T18:14:33.487Z,22.44
2018-06-27T18:17:02.789Z,22.46
2018-06-27T18:19:32.471Z,22.44
2018-06-27T18:22:01.499Z,22.40
2018-06-27T18:24:30.522Z,22.34
2018-06-27T18:26:59.528Z,22.36
2018-06-27T18:29:28.505Z,22.33
2018-06-27T18:31:57.552Z,22.32
2018-06-27T18:34:26.649Z,22.28
2018-06-27T18:36:55.651Z,22.32
2018-06-27T18:39:24.670Z,22.39
2018-06-27T18:41:53.643Z,22.39
2018-06-27T18:44:22.652Z,22.40
2018-06-27T18:46:51.863Z,22.49
2018-06-27T18:49:20.905Z,22.51
2018-06-27T18:51:49.882Z,22.47
2018-06-27T18:54:18.876Z,22.49
2018-06-27T18:56:47.930Z,22.39
2018-06-27T18:59:16.977Z,22.37
2018-06-27T19:01:46.002Z,22.28
2018-06-27T19:04:15.272Z,22.26
2018-06-27T19:06:44.505Z,22.18
2018-06-27T19:09:13.759Z,22.11
2018-06-27T19:11:43.047Z,21.99
2018-06-27T19:14:12.032Z,21.97
2018-06-27T19:16:40.976Z,21.87
2018-06-27T19:19:09.944Z,21.85
2018-06-27T19:21:38.895Z,21.69
2018-06-27T19:24:07.941Z,21.58
2018-06-27T19:26:36.978Z,21.42
2018-06-27T19:29:06.236Z,21.23
2018-06-27T19:31:35.231Z,21.11
2018-06-27T19:34:04.490Z,20.96
2018-06-27T19:36:33.493Z,20.82
2018-06-27T19:39:02.698Z,20.73
2018-06-27T19:41:31.694Z,20.65
2018-06-27T19:44:02.165Z,20.51
2018-06-27T19:46:31.160Z,20.37
2018-06-27T19:49:00.268Z,20.20
2018-06-27T19:51:34.005Z,20.12
2018-06-27T19:54:03.017Z,20.00
2018-06-27T19:56:32.268Z,19.90
2018-06-27T19:59:01.425Z,19.81
2018-06-27T20:04:05.603Z,19.78
2018-06-27T20:06:34.591Z,19.77
2018-06-27T20:09:04.246Z,19.80
2018-06-27T20:11:33.328Z,19.84
2018-06-27T20:14:02.378Z,19.92
2018-06-27T20:16:31.399Z,19.94
2018-06-27T20:19:00.345Z,20.02
2018-06-27T20:21:30.264Z,20.04
2018-06-27T20:23:59.358Z,20.06
2018-06-27T20:26:28.346Z,20.12
2018-06-27T20:28:57.390Z,20.11
2018-06-27T20:31:26.382Z,20.16
2018-06-27T20:33:55.348Z,20.21
2018-06-27T20:36:24.310Z,20.22
2018-06-27T20:38:53.276Z,20.23
2018-06-27T20:41:22.336Z,20.21
2018-06-27T20:43:51.320Z,20.20
2018-06-27T20:46:20.395Z,20.19
2018-06-27T20:48:49.689Z,20.19
2018-06-27T20:51:18.921Z,20.13
2018-06-27T20:53:48.107Z,20.09
2018-06-27T20:56:17.110Z,20.14
2018-06-27T20:58:46.265Z,20.11
2018-06-27T21:01:15.327Z,20.04
2018-06-27T21:03:44.310Z,20.03
2018-06-27T21:06:13.303Z,20.01
2018-06-27T21:08:42.363Z,19.99
2018-06-27T21:11:11.322Z,19.99
2018-06-27T21:13:40.440Z,20.00
2018-06-27T21:16:09.446Z,19.95
2018-06-27T21:18:38.425Z,19.92
2018-06-27T21:21:12.553Z,19.91
2018-06-27T21:23:41.584Z,19.86
2018-06-27T21:26:10.952Z,19.91
2018-06-27T21:28:40.440Z,19.95
2018-06-27T21:31:09.400Z,19.88
2018-06-27T21:33:38.411Z,19.88
2018-06-27T21:36:07.380Z,19.87
2018-06-27T21:38:36.346Z,19.86
2018-06-27T21:41:05.316Z,19.86
2018-06-27T21:43:34.325Z,19.80
2018-06-27T21:46:03.288Z,19.82
2018-06-27T21:48:32.273Z,19.80
2018-06-27T21:51:01.230Z,19.76
2018-06-27T21:53:30.279Z,19.77
2018-06-27T21:55:59.235Z,19.76
2018-06-27T21:58:28.209Z,19.77
2018-06-27T22:00:57.209Z,19.74
2018-06-27T22:03:26.167Z,19.71
2018-06-27T22:05:55.107Z,19.68
2018-06-27T22:08:24.176Z,19.66
2018-06-27T22:10:53.190Z,19.65
2018-06-27T22:13:22.145Z,19.67
2018-06-27T22:15:51.094Z,19.66
2018-06-27T22:18:20.079Z,19.61
2018-06-27T22:20:49.073Z,19.60
2018-06-27T22:23:18.116Z,19.62
2018-06-27T22:25:47.127Z,19.54
2018-06-27T22:28:16.187Z,19.53
2018-06-27T22:30:45.358Z,19.50
2018-06-27T22:33:14.611Z,19.46
2018-06-27T22:35:43.564Z,19.44
2018-06-27T22:38:12.557Z,19.46
2018-06-27T22:40:41.544Z,19.38
2018-06-27T22:43:10.506Z,19.34
2018-06-27T22:45:39.456Z,19.26
2018-06-27T22:48:08.424Z,19.22
2018-06-27T22:50:37.385Z,19.14
2018-06-27T22:53:06.350Z,19.11
2018-06-27T22:55:35.501Z,19.10
2018-06-27T22:58:04.646Z,19.14
2018-06-27T23:00:33.573Z,19.09
2018-06-27T23:03:02.609Z,19.03
2018-06-27T23:05:31.593Z,19.07
2018-06-27T23:08:00.547Z,19.02
2018-06-27T23:10:29.500Z,18.95
2018-06-27T23:12:58.485Z,18.88
2018-06-27T23:15:27.697Z,18.79
2018-06-27T23:17:56.756Z,18.78
2018-06-27T23:20:25.753Z,18.72
2018-06-27T23:22:54.739Z,18.67
2018-06-27T23:25:23.765Z,18.66
2018-06-27T23:27:52.749Z,18.60
2018-06-27T23:30:21.735Z,18.54
2018-06-27T23:32:50.734Z,18.51
2018-06-27T23:35:19.800Z,18.40
2018-06-27T23:37:48.831Z,18.40
2018-06-27T23:40:17.936Z,18.36
2018-06-27T23:42:47.017Z,18.30
2018-06-27T23:45:15.995Z,18.25
2018-06-27T23:47:45.081Z,18.19
2018-06-27T23:50:14.105Z,18.12
2018-06-27T23:52:43.080Z,18.06
2018-06-27T23:55:12.110Z,17.99
2018-06-27T23:57:41.056Z,17.98
